Time;durP1;ratioP1;P1;durP2;ratioP2;P2;SDS_P1;SDS_P2;PMS_P1;PMS_P2;Temp;Humidity;BMP_temperature;BMP_pressure;BME280_temperature;BME280_humidity;BME280_pressure;Samples;Min_cycle;Max_cycle;Signal;HPM_P1;HPM_P2
2023/04/04 00:01:43;;;;;;;7.03;2.70;;;;;;;;;;4989462;28;101194;-79
2023/04/04 00:04:09;;;;;;;8.07;2.58;;;;;;;;;;4976755;28;99427;-81
2023/04/04 00:06:36;;;;;;;3.53;2.53;;;;;;;;;;4971709;28;100511;-82
2023/04/04 00:09:02;;;;;;;4.07;2.60;;;;;;;;;;4971441;28;100523;-79
2023/04/04 00:11:28;;;;;;;4.68;2.50;;;;;;;;;;4988528;28;98627;-78
2023/04/04 00:13:55;;;;;;;5.03;2.58;;;;;;;;;;4971143;28;100590;-79
2023/04/04 00:16:22;;;;;;;4.03;2.70;;;;;;;;;;4987016;28;98609;-79
2023/04/04 00:18:49;;;;;;;6.45;2.67;;;;;;;;;;4971842;28;100250;-79
2023/04/04 00:21:15;;;;;;;5.45;2.67;;;;;;;;;;4977957;28;99559;-79
2023/04/04 00:23:42;;;;;;;4.75;2.80;;;;;;;;;;4991282;28;98524;-78
2023/04/04 00:26:08;;;;;;;3.33;2.72;;;;;;;;;;4990523;28;99371;-79
2023/04/04 00:28:34;;;;;;;5.97;2.63;;;;;;;;;;4985019;28;100591;-78
2023/04/04 00:31:01;;;;;;;4.78;2.88;;;;;;;;;;4983678;28;98805;-80
2023/04/04 00:33:27;;;;;;;8.82;2.92;;;;;;;;;;4991276;28;100100;-78
2023/04/04 00:35:54;;;;;;;6.95;3.28;;;;;;;;;;4989982;28;98540;-78
2023/04/04 00:38:20;;;;;;;5.13;2.63;;;;;;;;;;4980051;28;99497;-79
2023/04/04 00:40:48;;;;;;;10.18;2.92;;;;;;;;;;4984565;28;100968;-78
2023/04/04 00:43:15;;;;;;;10.18;2.90;;;;;;;;;;4989674;28;98225;-79
2023/04/04 00:45:42;;;;;;;8.35;2.88;;;;;;;;;;4987582;28;99333;-79
2023/04/04 00:48:08;;;;;;;5.22;2.38;;;;;;;;;;4982723;28;103100;-78
2023/04/04 00:50:39;;;;;;;8.15;2.53;;;;;;;;;;4990390;28;99226;-79
2023/04/04 00:53:06;;;;;;;4.97;2.75;;;;;;;;;;4977842;28;102715;-79
2023/04/04 00:55:35;;;;;;;4.57;2.47;;;;;;;;;;4987310;28;101021;-78
2023/04/04 00:58:02;;;;;;;5.95;2.65;;;;;;;;;;4987045;28;100435;-79
2023/04/04 01:00:28;;;;;;;3.63;2.83;;;;;;;;;;4970131;28;99387;-79
2023/04/04 01:02:56;;;;;;;6.03;2.55;;;;;;;;;;4985955;28;98591;-79
2023/04/04 01:05:23;;;;;;;5.78;2.50;;;;;;;;;;5001751;28;99186;-79
2023/04/04 01:07:49;;;;;;;4.28;2.75;;;;;;;;;;5011736;28;98942;-80
2023/04/04 01:10:16;;;;;;;6.13;2.65;;;;;;;;;;5011299;28;98583;-78
2023/04/04 01:12:42;;;;;;;5.35;2.53;;;;;;;;;;4990022;28;99342;-78
2023/04/04 01:15:09;;;;;;;6.15;2.70;;;;;;;;;;4987752;28;100420;-78
2023/04/04 01:17:36;;;;;;;6.90;3.10;;;;;;;;;;4994355;28;98890;-78
2023/04/04 01:20:06;;;;;;;4.47;2.65;;;;;;;;;;4980130;28;100553;-78
2023/04/04 01:22:34;;;;;;;4.53;2.70;;;;;;;;;;4986744;28;98579;-79
2023/04/04 01:25:02;;;;;;;6.43;3.08;;;;;;;;;;4990754;28;100231;-78
2023/04/04 01:27:28;;;;;;;5.55;2.40;;;;;;;;;;4988612;28;99486;-78
2023/04/04 01:29:55;;;;;;;6.15;2.35;;;;;;;;;;4984984;28;98678;-78
2023/04/04 01:32:26;;;;;;;7.75;2.95;;;;;;;;;;4984289;28;99159;-78
2023/04/04 01:34:52;;;;;;;6.50;3.28;;;;;;;;;;4984600;28;100483;-79
2023/04/04 01:37:22;;;;;;;5.82;3.25;;;;;;;;;;4981682;28;98471;-78
2023/04/04 01:39:52;;;;;;;9.68;2.80;;;;;;;;;;4981519;28;100213;-78
2023/04/04 01:42:19;;;;;;;5.63;3.93;;;;;;;;;;4973931;28;99292;-78
2023/04/04 01:44:46;;;;;;;7.72;2.75;;;;;;;;;;4988329;28;99167;-78
2023/04/04 01:47:12;;;;;;;6.72;2.50;;;;;;;;;;4986998;28;99228;-79
2023/04/04 01:49:38;;;;;;;6.65;2.60;;;;;;;;;;4987288;28;98708;-77
2023/04/04 01:52:06;;;;;;;3.33;2.28;;;;;;;;;;4985211;28;99141;-78
2023/04/04 01:54:34;;;;;;;5.03;3.08;;;;;;;;;;4984804;28;99500;-77
2023/04/04 01:57:01;;;;;;;3.28;2.50;;;;;;;;;;4985436;28;97822;-77
2023/04/04 01:59:27;;;;;;;8.85;3.20;;;;;;;;;;4983814;28;100507;-78
2023/04/04 02:01:54;;;;;;;5.20;2.53;;;;;;;;;;4991552;28;98941;-78
2023/04/04 02:04:20;;;;;;;7.00;3.30;;;;;;;;;;4989862;28;103280;-78
2023/04/04 02:06:47;;;;;;;5.00;3.13;;;;;;;;;;4989785;28;99771;-80
2023/04/04 02:09:13;;;;;;;6.85;3.13;;;;;;;;;;4988056;28;98640;-78
2023/04/04 02:11:39;;;;;;;4.45;2.80;;;;;;;;;;4987906;28;99143;-79
2023/04/04 02:14:06;;;;;;;5.30;2.97;;;;;;;;;;4989646;28;100942;-78
2023/04/04 02:16:32;;;;;;;6.07;3.45;;;;;;;;;;4994517;28;98835;-77
2023/04/04 02:18:59;;;;;;;4.65;3.03;;;;;;;;;;4992653;28;98960;-78
2023/04/04 02:21:26;;;;;;;3.92;2.92;;;;;;;;;;4991517;28;98724;-77
2023/04/04 02:23:52;;;;;;;4.40;2.70;;;;;;;;;;4989259;28;100297;-79
2023/04/04 02:26:20;;;;;;;3.60;2.50;;;;;;;;;;4988019;28;100515;-79
2023/04/04 02:28:46;;;;;;;4.30;3.10;;;;;;;;;;4980629;28;99253;-79
2023/04/04 02:31:13;;;;;;;6.68;2.50;;;;;;;;;;4987879;28;100931;-80
2023/04/04 02:33:39;;;;;;;7.07;2.95;;;;;;;;;;4969812;28;100873;-79
2023/04/04 02:36:06;;;;;;;5.35;2.70;;;;;;;;;;4985508;28;98801;-81
2023/04/04 02:38:33;;;;;;;8.88;3.42;;;;;;;;;;4974288;28;100246;-80
2023/04/04 02:40:59;;;;;;;6.57;3.85;;;;;;;;;;4991039;28;100527;-79
2023/04/04 02:43:26;;;;;;;9.35;3.30;;;;;;;;;;4995643;28;98564;-79
2023/04/04 02:45:52;;;;;;;7.25;3.45;;;;;;;;;;4992324;28;102775;-78
2023/04/04 02:48:18;;;;;;;10.73;2.92;;;;;;;;;;4976493;28;98588;-79
2023/04/04 02:50:46;;;;;;;6.68;3.22;;;;;;;;;;4978154;28;99026;-80
2023/04/04 02:53:12;;;;;;;7.45;3.35;;;;;;;;;;4990100;28;101597;-80
2023/04/04 02:55:38;;;;;;;5.22;3.20;;;;;;;;;;4988461;28;98644;-80
2023/04/04 02:58:05;;;;;;;7.13;2.95;;;;;;;;;;4987757;28;99877;-80
2023/04/04 03:00:31;;;;;;;7.25;2.97;;;;;;;;;;4987474;28;100052;-80
2023/04/04 03:02:58;;;;;;;4.80;2.80;;;;;;;;;;4991506;28;98532;-79
2023/04/04 03:05:25;;;;;;;3.97;3.15;;;;;;;;;;4991486;28;101790;-80
2023/04/04 03:07:54;;;;;;;7.70;2.97;;;;;;;;;;4986323;28;98545;-80
2023/04/04 03:10:21;;;;;;;6.72;3.50;;;;;;;;;;4990196;28;100334;-80
2023/04/04 03:12:48;;;;;;;5.78;2.83;;;;;;;;;;4990951;28;100706;-81
2023/04/04 03:15:14;;;;;;;9.52;3.25;;;;;;;;;;4991621;28;99304;-80
2023/04/04 03:17:41;;;;;;;9.30;3.00;;;;;;;;;;4989227;28;100014;-80
2023/04/04 03:20:08;;;;;;;5.13;3.20;;;;;;;;;;4989763;28;100482;-80
2023/04/04 03:22:34;;;;;;;6.32;3.10;;;;;;;;;;4980891;28;100046;-81
2023/04/04 03:25:01;;;;;;;8.02;3.13;;;;;;;;;;4992741;28;100264;-81
2023/04/04 03:27:27;;;;;;;7.00;2.88;;;;;;;;;;4990119;28;98576;-80
2023/04/04 03:29:53;;;;;;;6.68;3.50;;;;;;;;;;4985783;28;99713;-79
2023/04/04 03:32:20;;;;;;;6.63;2.97;;;;;;;;;;4981464;28;100446;-80
2023/04/04 03:34:46;;;;;;;7.85;3.15;;;;;;;;;;4983813;28;97891;-79
2023/04/04 03:37:13;;;;;;;6.57;3.53;;;;;;;;;;4989920;28;99612;-80
2023/04/04 03:39:39;;;;;;;7.18;3.72;;;;;;;;;;4990285;28;100620;-79
2023/04/04 03:42:05;;;;;;;7.78;3.47;;;;;;;;;;4990147;28;99347;-80
2023/04/04 03:44:32;;;;;;;8.02;3.35;;;;;;;;;;4990334;28;100968;-78
2023/04/04 03:46:58;;;;;;;7.43;3.13;;;;;;;;;;4984349;28;99265;-79
2023/04/04 03:49:25;;;;;;;5.57;3.58;;;;;;;;;;4977576;28;99693;-79
2023/04/04 03:51:51;;;;;;;11.75;3.38;;;;;;;;;;4985185;28;100395;-78
2023/04/04 03:54:18;;;;;;;4.13;3.22;;;;;;;;;;4987413;28;98699;-79
2023/04/04 03:56:44;;;;;;;6.50;3.47;;;;;;;;;;4986981;28;100714;-78
2023/04/04 03:59:11;;;;;;;7.95;3.97;;;;;;;;;;4982960;28;99136;-79
2023/04/04 04:01:37;;;;;;;7.40;3.30;;;;;;;;;;4988552;28;99923;-79
2023/04/04 04:04:04;;;;;;;5.40;3.50;;;;;;;;;;4990437;28;99157;-80
2023/04/04 04:06:30;;;;;;;9.07;3.17;;;;;;;;;;4994979;28;101403;-79
2023/04/04 04:08:57;;;;;;;5.35;3.05;;;;;;;;;;4990704;28;98667;-78
2023/04/04 04:11:24;;;;;;;11.43;3.88;;;;;;;;;;4979038;28;103722;-78
2023/04/04 04:13:50;;;;;;;8.60;3.60;;;;;;;;;;4989029;28;98576;-79
2023/04/04 04:16:17;;;;;;;6.47;3.38;;;;;;;;;;4993870;28;99169;-79
2023/04/04 04:18:43;;;;;;;8.15;3.83;;;;;;;;;;5008095;28;101076;-80
2023/04/04 04:21:10;;;;;;;6.82;3.58;;;;;;;;;;4987053;28;98511;-79
2023/04/04 04:23:36;;;;;;;6.60;3.72;;;;;;;;;;4986936;28;99127;-79
2023/04/04 04:26:03;;;;;;;9.65;3.75;;;;;;;;;;4986186;28;100718;-80
2023/04/04 04:28:29;;;;;;;5.05;3.08;;;;;;;;;;4983797;28;98904;-79
2023/04/04 04:31:06;;;;;;;11.13;3.28;;;;;;;;;;4983080;28;101506;-79
2023/04/04 04:33:33;;;;;;;5.50;3.10;;;;;;;;;;4989420;28;98612;-79
2023/04/04 04:36:00;;;;;;;5.07;2.67;;;;;;;;;;4983274;28;98914;-80
2023/04/04 04:38:28;;;;;;;11.02;3.88;;;;;;;;;;4989965;28;100523;-82
2023/04/04 04:40:55;;;;;;;5.47;3.78;;;;;;;;;;4989199;28;99056;-81
2023/04/04 04:43:23;;;;;;;7.75;3.60;;;;;;;;;;4974955;28;100196;-82
2023/04/04 04:45:50;;;;;;;6.93;3.50;;;;;;;;;;4984047;28;102232;-82
2023/04/04 04:48:16;;;;;;;8.50;3.50;;;;;;;;;;4973402;28;98232;-82
2023/04/04 04:50:45;;;;;;;11.35;3.40;;;;;;;;;;4986189;28;98642;-81
2023/04/04 04:53:11;;;;;;;4.53;3.72;;;;;;;;;;4991190;28;103670;-82
2023/04/04 04:55:37;;;;;;;7.45;3.60;;;;;;;;;;4985188;28;100231;-79
2023/04/04 04:58:05;;;;;;;5.85;3.55;;;;;;;;;;4970705;28;99696;-80
2023/04/04 05:00:31;;;;;;;6.10;3.80;;;;;;;;;;4979757;28;98522;-78
2023/04/04 05:02:59;;;;;;;9.23;3.55;;;;;;;;;;4982177;28;100280;-80
2023/04/04 05:05:26;;;;;;;6.63;3.80;;;;;;;;;;4987994;28;100681;-80
2023/04/04 05:07:53;;;;;;;7.97;3.80;;;;;;;;;;4988531;28;98607;-80
2023/04/04 05:10:19;;;;;;;5.63;3.58;;;;;;;;;;4979061;28;99336;-80
2023/04/04 05:12:46;;;;;;;5.70;3.47;;;;;;;;;;4987726;28;99876;-81
2023/04/04 05:15:13;;;;;;;6.55;4.15;;;;;;;;;;4994065;28;98610;-81
2023/04/04 05:17:39;;;;;;;11.35;3.88;;;;;;;;;;4975501;28;99982;-81
2023/04/04 05:20:06;;;;;;;8.93;3.70;;;;;;;;;;4975400;28;99301;-80
2023/04/04 05:22:32;;;;;;;6.32;4.20;;;;;;;;;;4988917;28;100686;-80
2023/04/04 05:24:59;;;;;;;6.63;3.50;;;;;;;;;;4986662;28;100468;-79
2023/04/04 05:27:25;;;;;;;12.95;4.40;;;;;;;;;;4988682;28;98514;-78
2023/04/04 05:29:52;;;;;;;10.38;4.68;;;;;;;;;;4986227;28;99391;-79
2023/04/04 05:32:18;;;;;;;7.03;4.05;;;;;;;;;;4980637;28;100004;-78
2023/04/04 05:34:45;;;;;;;9.60;4.43;;;;;;;;;;4992749;28;98594;-80
2023/04/04 05:37:11;;;;;;;6.75;3.90;;;;;;;;;;4980178;28;100246;-80
2023/04/04 05:39:38;;;;;;;10.30;3.95;;;;;;;;;;4987197;28;98761;-79
2023/04/04 05:42:04;;;;;;;9.38;3.75;;;;;;;;;;4979829;28;100297;-79
2023/04/04 05:44:31;;;;;;;13.90;4.32;;;;;;;;;;4987049;28;104195;-79
2023/04/04 05:46:57;;;;;;;8.40;4.15;;;;;;;;;;4986699;28;98552;-79
2023/04/04 05:49:24;;;;;;;5.65;4.00;;;;;;;;;;4978440;28;99447;-79
2023/04/04 05:51:51;;;;;;;6.35;3.53;;;;;;;;;;4986975;28;99851;-82
2023/04/04 05:54:17;;;;;;;4.95;3.53;;;;;;;;;;4976361;28;98627;-80
2023/04/04 05:56:43;;;;;;;9.68;3.83;;;;;;;;;;4982098;28;100229;-79
2023/04/04 05:59:10;;;;;;;6.10;3.90;;;;;;;;;;4974347;28;98555;-80
2023/04/04 06:01:36;;;;;;;6.28;3.47;;;;;;;;;;4979607;28;100747;-80
2023/04/04 06:04:03;;;;;;;4.65;3.33;;;;;;;;;;4989017;28;99471;-80
2023/04/04 06:06:29;;;;;;;5.90;4.07;;;;;;;;;;4989668;28;98555;-79
2023/04/04 06:08:55;;;;;;;13.05;6.82;;;;;;;;;;4990275;28;101389;-80
2023/04/04 06:11:22;;;;;;;16.00;8.13;;;;;;;;;;4992659;28;99732;-79
2023/04/04 06:13:49;;;;;;;25.80;11.00;;;;;;;;;;4992388;28;98652;-80
2023/04/04 06:16:15;;;;;;;12.98;6.05;;;;;;;;;;4992821;28;99444;-79
2023/04/04 06:18:41;;;;;;;11.63;6.95;;;;;;;;;;4976019;28;100998;-77
2023/04/04 06:21:08;;;;;;;11.35;5.78;;;;;;;;;;4977591;28;100273;-79
2023/04/04 06:23:36;;;;;;;12.20;5.18;;;;;;;;;;4992645;28;100522;-81
2023/04/04 06:26:03;;;;;;;20.15;8.68;;;;;;;;;;4993000;28;97705;-79
2023/04/04 06:28:29;;;;;;;15.20;6.53;;;;;;;;;;4993087;28;98477;-79
2023/04/04 06:30:55;;;;;;;13.05;5.97;;;;;;;;;;4992507;28;102145;-80
2023/04/04 06:33:22;;;;;;;15.05;4.75;;;;;;;;;;4991602;28;99964;-80
2023/04/04 06:35:48;;;;;;;17.70;5.45;;;;;;;;;;4984154;28;100397;-79
2023/04/04 06:38:14;;;;;;;47.70;6.80;;;;;;;;;;4992042;28;100618;-79
2023/04/04 06:40:41;;;;;;;25.30;5.38;;;;;;;;;;4993088;28;100131;-79
2023/04/04 06:43:09;;;;;;;21.13;5.05;;;;;;;;;;4990472;28;99228;-79
2023/04/04 06:45:35;;;;;;;9.23;4.85;;;;;;;;;;4988319;28;98749;-79
2023/04/04 06:48:02;;;;;;;14.35;5.07;;;;;;;;;;4979704;28;100374;-79
2023/04/04 06:50:29;;;;;;;20.98;5.13;;;;;;;;;;4987580;28;100062;-78
2023/04/04 06:52:56;;;;;;;7.97;4.68;;;;;;;;;;4976882;28;99323;-79
2023/04/04 06:55:22;;;;;;;18.33;5.45;;;;;;;;;;4981540;28;100673;-79
2023/04/04 06:57:48;;;;;;;8.52;5.60;;;;;;;;;;4987675;28;101292;-79
2023/04/04 07:00:15;;;;;;;9.57;5.07;;;;;;;;;;4989532;28;98598;-79
2023/04/04 07:02:41;;;;;;;9.20;4.95;;;;;;;;;;4993065;28;102315;-79
2023/04/04 07:05:08;;;;;;;9.93;5.57;;;;;;;;;;4979325;28;98630;-78
2023/04/04 07:07:35;;;;;;;9.02;5.45;;;;;;;;;;4985100;28;99178;-79
2023/04/04 07:10:02;;;;;;;10.70;5.32;;;;;;;;;;4982850;28;99992;-79
2023/04/04 07:12:29;;;;;;;8.40;5.20;;;;;;;;;;4991270;28;100357;-80
2023/04/04 07:14:55;;;;;;;9.90;5.25;;;;;;;;;;4992332;28;99939;-80
2023/04/04 07:17:21;;;;;;;11.18;5.72;;;;;;;;;;4991079;28;100620;-80
2023/04/04 07:19:50;;;;;;;12.65;5.93;;;;;;;;;;4989427;28;98577;-80
2023/04/04 07:22:17;;;;;;;7.25;4.97;;;;;;;;;;4990404;28;100355;-81
2023/04/04 07:24:43;;;;;;;9.82;5.53;;;;;;;;;;4993177;28;100769;-82
2023/04/04 07:27:10;;;;;;;11.82;6.07;;;;;;;;;;4988099;28;103225;-81
2023/04/04 07:29:36;;;;;;;14.02;5.38;;;;;;;;;;4989024;28;101034;-82
2023/04/04 07:32:03;;;;;;;7.40;5.47;;;;;;;;;;4984771;28;98691;-82
2023/04/04 07:34:30;;;;;;;9.73;5.93;;;;;;;;;;4987282;28;100488;-81
2023/04/04 07:36:56;;;;;;;13.73;6.80;;;;;;;;;;4988965;28;100621;-82
2023/04/04 07:39:23;;;;;;;19.55;6.97;;;;;;;;;;4980612;28;97913;-83
2023/04/04 07:41:50;;;;;;;11.57;5.68;;;;;;;;;;4989348;28;99671;-83
2023/04/04 07:44:17;;;;;;;16.08;5.95;;;;;;;;;;4975043;28;100091;-82
2023/04/04 07:46:43;;;;;;;10.43;5.68;;;;;;;;;;4977284;28;100218;-82
2023/04/04 07:49:15;;;;;;;16.42;5.72;;;;;;;;;;4989911;28;99770;-83
2023/04/04 07:51:41;;;;;;;11.68;5.45;;;;;;;;;;4992119;28;98768;-83
2023/04/04 07:54:08;;;;;;;14.45;5.43;;;;;;;;;;4991775;28;100584;-84
2023/04/04 07:56:34;;;;;;;10.07;5.30;;;;;;;;;;4990044;28;100813;-84
2023/04/04 07:59:01;;;;;;;10.88;5.30;;;;;;;;;;4989521;28;98525;-83
2023/04/04 08:01:29;;;;;;;24.25;5.90;;;;;;;;;;4976727;28;99282;-83
2023/04/04 08:03:56;;;;;;;11.65;5.30;;;;;;;;;;4990588;28;99809;-83
2023/04/04 08:06:22;;;;;;;14.13;5.30;;;;;;;;;;4994597;28;98563;-83
2023/04/04 08:08:49;;;;;;;11.68;5.43;;;;;;;;;;4989331;28;104023;-83
2023/04/04 08:11:16;;;;;;;9.75;5.22;;;;;;;;;;4988999;28;99199;-83
2023/04/04 08:13:42;;;;;;;16.33;5.93;;;;;;;;;;4991494;28;104317;-84
2023/04/04 08:16:08;;;;;;;14.70;5.80;;;;;;;;;;4989761;28;100230;-84
2023/04/04 08:18:35;;;;;;;9.40;5.50;;;;;;;;;;4988739;28;98754;-84
2023/04/04 08:21:02;;;;;;;12.70;5.07;;;;;;;;;;4989182;28;100369;-81
2023/04/04 08:23:29;;;;;;;10.27;5.20;;;;;;;;;;4989281;28;99516;-81
2023/04/04 08:25:58;;;;;;;13.38;4.65;;;;;;;;;;4986696;28;98547;-85
2023/04/04 08:28:26;;;;;;;9.07;4.80;;;;;;;;;;4976395;28;99091;-85
2023/04/04 08:30:53;;;;;;;14.68;4.72;;;;;;;;;;4989154;28;98731;-84
2023/04/04 08:33:23;;;;;;;12.90;3.92;;;;;;;;;;4991096;28;100599;-84
2023/04/04 08:35:59;;;;;;;9.63;4.00;;;;;;;;;;4990100;28;101440;-85
2023/04/04 08:38:26;;;;;;;8.77;3.65;;;;;;;;;;4985705;28;99758;-85
2023/04/04 08:40:52;;;;;;;18.60;4.78;;;;;;;;;;4978442;28;99102;-85
2023/04/04 08:43:19;;;;;;;11.18;4.32;;;;;;;;;;4989960;28;99327;-85
2023/04/04 08:45:45;;;;;;;8.25;3.88;;;;;;;;;;4989867;28;98919;-85
2023/04/04 08:48:14;;;;;;;5.72;3.63;;;;;;;;;;4984033;28;100238;-85
2023/04/04 08:50:43;;;;;;;7.75;3.70;;;;;;;;;;4978536;28;103770;-83
2023/04/04 08:53:10;;;;;;;13.43;3.55;;;;;;;;;;4985659;28;99344;-84
2023/04/04 08:55:37;;;;;;;8.52;3.10;;;;;;;;;;4975089;28;100793;-84
2023/04/04 08:58:04;;;;;;;8.48;3.55;;;;;;;;;;4989770;28;100840;-83
2023/04/04 09:00:30;;;;;;;5.20;3.53;;;;;;;;;;4988304;28;99597;-86
2023/04/04 09:03:16;;;;;;;4.88;3.17;;;;;;;;;;4976855;28;103844;-83
2023/04/04 09:05:43;;;;;;;8.02;2.55;;;;;;;;;;4988068;28;98541;-83
2023/04/04 09:08:11;;;;;;;9.07;2.55;;;;;;;;;;4990237;28;98964;-83
2023/04/04 09:10:38;;;;;;;6.25;2.30;;;;;;;;;;4989424;28;99752;-84
2023/04/04 09:13:05;;;;;;;8.38;2.53;;;;;;;;;;4993050;28;98593;-84
2023/04/04 09:15:42;;;;;;;7.18;2.50;;;;;;;;;;4985081;28;100831;-84
2023/04/04 09:18:08;;;;;;;6.80;2.35;;;;;;;;;;4988526;28;97896;-85
2023/04/04 09:20:36;;;;;;;15.18;2.70;;;;;;;;;;4988458;28;99713;-84
2023/04/04 09:23:07;;;;;;;4.50;2.17;;;;;;;;;;4990580;28;100628;-84
2023/04/04 09:25:34;;;;;;;5.57;2.75;;;;;;;;;;4986431;28;100287;-84
2023/04/04 09:28:03;;;;;;;8.98;2.53;;;;;;;;;;4990583;28;101326;-84
2023/04/04 09:30:34;;;;;;;8.10;2.70;;;;;;;;;;4989534;28;103983;-85
2023/04/04 09:33:04;;;;;;;7.20;3.03;;;;;;;;;;4989648;28;99015;-85
2023/04/04 09:35:31;;;;;;;5.63;2.70;;;;;;;;;;4991453;28;100704;-85
2023/04/04 09:37:58;;;;;;;3.78;2.17;;;;;;;;;;4989108;28;98556;-86
2023/04/04 09:40:26;;;;;;;4.38;2.25;;;;;;;;;;4989698;28;100300;-85
2023/04/04 09:42:54;;;;;;;7.13;2.53;;;;;;;;;;4989493;28;100204;-85
2023/04/04 09:45:22;;;;;;;4.25;2.30;;;;;;;;;;4991539;28;98685;-86
2023/04/04 09:48:09;;;;;;;5.18;2.28;;;;;;;;;;4996459;28;102409;-85
2023/04/04 09:50:45;;;;;;;4.60;2.10;;;;;;;;;;4991720;28;101486;-87
2023/04/04 09:53:17;;;;;;;13.65;4.20;;;;;;;;;;4992107;28;98602;-86
2023/04/04 09:55:51;;;;;;;57.63;11.48;;;;;;;;;;4993121;28;99254;-86
2023/04/04 09:58:18;;;;;;;32.08;6.65;;;;;;;;;;4983340;28;98530;-86
2023/04/04 10:00:47;;;;;;;16.80;5.18;;;;;;;;;;4992766;28;102995;-86
2023/04/04 10:03:14;;;;;;;5.78;2.63;;;;;;;;;;4991386;28;100902;-87
2023/04/04 10:05:40;;;;;;;4.57;2.50;;;;;;;;;;4993545;28;98621;-86
2023/04/04 10:08:17;;;;;;;6.28;2.38;;;;;;;;;;4993579;28;99237;-85
2023/04/04 10:10:47;;;;;;;7.75;2.55;;;;;;;;;;4986663;28;100960;-87
2023/04/04 10:13:31;;;;;;;4.68;2.42;;;;;;;;;;4976335;28;98771;-88
2023/04/04 10:15:59;;;;;;;3.17;2.42;;;;;;;;;;4992158;28;99421;-88
2023/04/04 10:18:26;;;;;;;8.45;2.90;;;;;;;;;;4981763;28;100614;-86
2023/04/04 10:20:57;;;;;;;4.38;2.53;;;;;;;;;;4985628;28;100486;-85
2023/04/04 10:23:41;;;;;;;7.93;2.58;;;;;;;;;;4976313;28;100674;-85
2023/04/04 10:26:07;;;;;;;5.13;2.78;;;;;;;;;;4972507;28;98608;-85
2023/04/04 10:28:34;;;;;;;7.35;2.65;;;;;;;;;;4974310;28;100403;-85
2023/04/04 10:31:21;;;;;;;5.53;2.65;;;;;;;;;;4990477;28;100735;-85
2023/04/04 10:33:53;;;;;;;7.53;2.50;;;;;;;;;;4985760;28;98286;-81
2023/04/04 10:36:23;;;;;;;6.32;2.40;;;;;;;;;;4982086;28;99550;-84
2023/04/04 10:39:16;;;;;;;4.00;2.17;;;;;;;;;;4992347;28;100600;-86
2023/04/04 10:41:44;;;;;;;4.57;2.20;;;;;;;;;;4978219;28;99334;-86
2023/04/04 10:44:16;;;;;;;6.55;2.90;;;;;;;;;;4991809;28;100797;-86
2023/04/04 10:46:44;;;;;;;4.22;2.33;;;;;;;;;;4993442;28;98741;-86
2023/04/04 10:49:11;;;;;;;6.32;2.40;;;;;;;;;;4992974;28;100346;-86
2023/04/04 10:51:38;;;;;;;4.55;2.90;;;;;;;;;;4992171;28;99308;-85
2023/04/04 10:54:20;;;;;;;5.85;2.58;;;;;;;;;;4979693;28;100108;-85
2023/04/04 10:56:48;;;;;;;7.20;2.95;;;;;;;;;;4992400;28;103375;-85
2023/04/04 10:59:15;;;;;;;4.30;2.60;;;;;;;;;;4987697;28;99940;-86
2023/04/04 11:01:56;;;;;;;5.18;2.58;;;;;;;;;;5001137;28;98557;-85
2023/04/04 11:04:33;;;;;;;7.55;2.63;;;;;;;;;;4994213;28;100305;-85
2023/04/04 11:07:04;;;;;;;3.80;2.25;;;;;;;;;;4991648;28;99645;-85
2023/04/04 11:09:49;;;;;;;4.03;2.30;;;;;;;;;;4992972;28;101015;-86
2023/04/04 11:12:19;;;;;;;5.63;1.95;;;;;;;;;;4991281;28;99571;-87
2023/04/04 11:14:55;;;;;;;6.78;2.45;;;;;;;;;;4991710;28;98997;-86
2023/04/04 11:17:41;;;;;;;6.43;2.45;;;;;;;;;;4990721;28;100185;-85
2023/04/04 11:20:08;;;;;;;5.78;2.70;;;;;;;;;;4972167;28;100646;-85
2023/04/04 11:22:35;;;;;;;5.07;2.47;;;;;;;;;;4989045;28;98622;-86
2023/04/04 11:25:20;;;;;;;8.85;2.90;;;;;;;;;;4992022;28;100095;-83
2023/04/04 11:27:47;;;;;;;9.80;2.70;;;;;;;;;;4995197;28;100774;-79
2023/04/04 11:30:14;;;;;;;9.48;2.67;;;;;;;;;;4989875;28;99853;-83
2023/04/04 11:32:42;;;;;;;11.45;2.97;;;;;;;;;;4987148;28;100342;-84
2023/04/04 11:35:18;;;;;;;4.20;2.53;;;;;;;;;;4972832;28;99387;-83
2023/04/04 11:37:52;;;;;;;6.22;2.53;;;;;;;;;;4984164;28;100564;-84
2023/04/04 11:40:18;;;;;;;8.10;2.70;;;;;;;;;;4989377;28;102476;-83
2023/04/04 11:42:49;;;;;;;5.43;2.40;;;;;;;;;;4986146;28;98615;-84
2023/04/04 11:45:19;;;;;;;7.30;2.40;;;;;;;;;;4982271;28;100223;-83
2023/04/04 11:47:46;;;;;;;5.63;2.72;;;;;;;;;;4987413;28;100308;-83
2023/04/04 11:50:13;;;;;;;5.22;2.38;;;;;;;;;;4995658;28;97727;-83
2023/04/04 11:52:41;;;;;;;7.18;2.55;;;;;;;;;;4995830;28;100591;-82
2023/04/04 11:55:21;;;;;;;4.80;2.58;;;;;;;;;;5009183;28;98122;-83
2023/04/04 11:57:50;;;;;;;6.55;2.85;;;;;;;;;;4993862;28;99276;-82
2023/04/04 12:00:34;;;;;;;6.07;2.58;;;;;;;;;;5001191;28;98398;-83
2023/04/04 12:03:03;;;;;;;5.72;2.63;;;;;;;;;;5010855;28;97915;-82
2023/04/04 12:05:30;;;;;;;3.17;2.00;;;;;;;;;;4995954;28;98321;-82
2023/04/04 12:07:57;;;;;;;6.10;2.28;;;;;;;;;;4986789;28;99092;-83
2023/04/04 12:10:24;;;;;;;4.78;2.67;;;;;;;;;;4982109;28;100316;-83
2023/04/04 12:12:54;;;;;;;4.95;2.50;;;;;;;;;;4980505;28;100569;-83
2023/04/04 12:15:20;;;;;;;7.33;2.37;;;;;;;;;;4990578;28;97823;-83
2023/04/04 12:17:47;;;;;;;6.68;2.70;;;;;;;;;;4988599;28;100599;-83
2023/04/04 12:20:14;;;;;;;3.80;2.47;;;;;;;;;;4989704;28;102604;-82
2023/04/04 12:22:41;;;;;;;6.13;2.40;;;;;;;;;;5001031;28;101528;-83
2023/04/04 12:25:08;;;;;;;6.47;2.80;;;;;;;;;;4986698;28;99856;-83
2023/04/04 12:27:35;;;;;;;6.82;2.70;;;;;;;;;;4992078;28;102602;-83
2023/04/04 12:30:03;;;;;;;5.75;3.20;;;;;;;;;;4991389;28;98509;-83
2023/04/04 12:32:30;;;;;;;3.78;2.70;;;;;;;;;;4992943;28;100188;-84
2023/04/04 12:35:00;;;;;;;6.75;2.75;;;;;;;;;;4991687;28;98493;-84
2023/04/04 12:37:29;;;;;;;6.37;2.73;;;;;;;;;;4990452;28;103058;-84
2023/04/04 12:39:55;;;;;;;11.27;2.70;;;;;;;;;;4990106;28;99916;-84
2023/04/04 12:42:24;;;;;;;4.90;2.70;;;;;;;;;;4985498;28;99459;-84
2023/04/04 12:44:51;;;;;;;8.90;2.55;;;;;;;;;;4983380;28;99090;-85
2023/04/04 12:47:19;;;;;;;6.28;2.65;;;;;;;;;;4990803;28;100703;-84
2023/04/04 12:49:47;;;;;;;5.22;2.80;;;;;;;;;;4980736;28;99086;-84
2023/04/04 12:52:19;;;;;;;7.05;2.85;;;;;;;;;;4987700;28;100618;-84
2023/04/04 12:54:46;;;;;;;5.43;2.80;;;;;;;;;;4993091;28;100522;-87
2023/04/04 12:57:23;;;;;;;6.47;2.85;;;;;;;;;;4975063;28;100399;-81
2023/04/04 12:59:52;;;;;;;5.05;2.55;;;;;;;;;;4981904;28;99498;-85
2023/04/04 13:02:20;;;;;;;4.47;2.67;;;;;;;;;;4989920;28;98594;-81
2023/04/04 13:04:51;;;;;;;7.57;2.90;;;;;;;;;;4988702;28;101133;-79
2023/04/04 13:07:17;;;;;;;;;;;;;;;;;;4990409;28;99521;-80
2023/04/04 13:09:54;;;;;;;9.32;2.55;;;;;;;;;;4990833;28;118596;-82
2023/04/04 13:12:22;;;;;;;6.05;2.63;;;;;;;;;;4982983;28;100938;-83
2023/04/04 13:14:59;;;;;;;4.00;2.70;;;;;;;;;;4979342;28;100571;-82
2023/04/04 13:17:38;;;;;;;4.45;2.42;;;;;;;;;;4990285;28;98570;-84
2023/04/04 13:20:05;;;;;;;6.55;3.30;;;;;;;;;;4986885;28;100579;-83
2023/04/04 13:22:35;;;;;;;3.38;2.25;;;;;;;;;;4987732;28;98912;-79
2023/04/04 13:25:02;;;;;;;6.18;3.33;;;;;;;;;;4982924;28;99356;-80
2023/04/04 13:27:28;;;;;;;6.68;2.97;;;;;;;;;;4989362;28;99866;-78
2023/04/04 13:29:55;;;;;;;8.80;3.25;;;;;;;;;;4984683;28;97880;-79
2023/04/04 13:32:21;;;;;;;6.63;3.10;;;;;;;;;;4989117;28;98648;-77
2023/04/04 13:34:48;;;;;;;10.55;3.42;;;;;;;;;;4988944;28;99441;-80
2023/04/04 13:37:14;;;;;;;11.30;3.47;;;;;;;;;;4987637;28;99364;-80
2023/04/04 13:39:41;;;;;;;5.15;2.63;;;;;;;;;;4992777;28;100977;-81
2023/04/04 13:42:09;;;;;;;5.32;2.78;;;;;;;;;;4989440;28;98551;-82
2023/04/04 13:44:36;;;;;;;4.47;2.90;;;;;;;;;;4990084;28;100317;-82
2023/04/04 13:47:03;;;;;;;4.95;2.97;;;;;;;;;;4980918;28;99955;-88
2023/04/04 13:49:29;;;;;;;7.97;3.28;;;;;;;;;;4983313;28;98738;-84
2023/04/04 13:51:55;;;;;;;5.03;3.20;;;;;;;;;;4992741;28;100353;-88
2023/04/04 14:09:42;;;;;;;7.63;3.20;;;;;;;;;;5035451;28;86508;-62
2023/04/04 14:12:09;;;;;;;6.13;2.67;;;;;;;;;;5029780;28;86927;-62
2023/04/04 14:14:35;;;;;;;5.50;3.17;;;;;;;;;;5026456;28;87069;-62
2023/04/04 14:17:03;;;;;;;6.68;3.20;;;;;;;;;;5025686;27;87826;-62
2023/04/04 14:19:29;;;;;;;6.95;3.20;;;;;;;;;;5015644;28;86959;-62
2023/04/04 14:21:55;;;;;;;11.73;3.38;;;;;;;;;;5029663;27;87322;-62
2023/04/04 14:24:22;;;;;;;11.85;3.42;;;;;;;;;;5034900;28;88500;-62
2023/04/04 14:26:48;;;;;;;6.95;4.03;;;;;;;;;;5034531;27;87573;-61
2023/04/04 14:29:14;;;;;;;6.85;3.15;;;;;;;;;;5023217;28;88878;-61
2023/04/04 14:31:41;;;;;;;4.25;3.17;;;;;;;;;;5019849;28;88449;-62
2023/04/04 14:34:07;;;;;;;6.38;3.60;;;;;;;;;;5033480;28;88344;-63
2023/04/04 14:36:33;;;;;;;8.43;3.22;;;;;;;;;;5029579;28;87185;-61
2023/04/04 14:39:00;;;;;;;4.82;3.38;;;;;;;;;;5033181;28;87495;-62
2023/04/04 14:41:27;;;;;;;5.63;3.42;;;;;;;;;;5032189;28;87579;-61
2023/04/04 14:43:53;;;;;;;6.10;3.75;;;;;;;;;;5017498;28;87051;-62
2023/04/04 14:46:19;;;;;;;7.93;3.38;;;;;;;;;;5031145;27;87860;-62
2023/04/04 14:48:46;;;;;;;4.93;3.13;;;;;;;;;;5013937;28;87707;-61
2023/04/04 14:51:13;;;;;;;6.20;3.35;;;;;;;;;;5014892;28;87674;-62
2023/04/04 14:53:39;;;;;;;5.53;3.28;;;;;;;;;;5013135;28;87287;-62
2023/04/04 14:56:06;;;;;;;6.55;3.22;;;;;;;;;;5008087;28;88855;-62